Time;durP1;ratioP1;P1;durP2;ratioP2;P2;SDS_P1;SDS_P2;PMS_P1;PMS_P2;Temp;Humidity;BMP_temperature;BMP_pressure;BME280_temperature;BME280_humidity;BME280_pressure;Samples;Min_cycle;Max_cycle;Signal;HPM_P1;HPM_P2
2022/09/17 00:03:17;;;;;;;10.40;2.03;;;;;;;9.85;60.51;99504.91;10368875;28;20061;-83
2022/09/17 00:08:19;;;;;;;7.90;1.70;;;;;;;9.88;60.50;99509.13;10370076;28;20089;-83
2022/09/17 00:13:21;;;;;;;10.15;2.00;;;;;;;9.94;60.51;99493.91;10370935;28;20079;-83
2022/09/17 00:18:22;;;;;;;9.63;2.10;;;;;;;9.89;60.31;99501.16;10377443;28;20056;-83
2022/09/17 00:23:24;;;;;;;10.98;2.00;;;;;;;9.98;60.35;99504.97;10380382;28;20395;-83
2022/09/17 00:28:26;;;;;;;7.57;1.80;;;;;;;10.09;60.24;99510.38;10375223;28;20482;-84
2022/09/17 00:33:27;;;;;;;7.93;1.80;;;;;;;10.17;59.88;99503.72;10388681;28;20133;-84
2022/09/17 00:38:29;;;;;;;9.07;2.00;;;;;;;10.19;59.78;99511.44;10386211;28;20052;-83
2022/09/17 00:43:39;;;;;;;8.30;2.03;;;;;;;10.32;59.74;99500.09;10384788;28;20063;-83
2022/09/17 00:48:41;;;;;;;9.88;1.88;;;;;;;10.34;59.78;99505.19;10418126;28;20530;-83
2022/09/17 00:53:42;;;;;;;5.50;1.80;;;;;;;10.42;59.63;99505.53;10381767;28;20125;-82
2022/09/17 00:58:45;;;;;;;10.65;2.45;;;;;;;10.51;59.32;99507.56;10379301;28;20053;-82
2022/09/17 01:03:47;;;;;;;7.25;1.95;;;;;;;10.56;59.32;99505.50;10377782;28;20143;-83
2022/09/17 01:09:10;;;;;;;6.07;1.67;;;;;;;10.54;59.46;99512.59;10409984;28;21054;-83
2022/09/17 01:14:34;;;;;;;14.02;2.47;;;;;;;10.61;59.38;99510.41;10377503;28;20053;-83
2022/09/17 01:20:25;;;;;;;9.40;2.08;;;;;;;10.60;59.25;99517.44;10379124;28;20053;-83
2022/09/17 01:25:48;;;;;;;7.53;1.88;;;;;;;10.66;59.02;99511.78;10379873;28;20419;-83
2022/09/17 01:30:55;;;;;;;11.88;2.15;;;;;;;10.73;59.51;99512.19;10392291;28;20514;-83
2022/09/17 01:36:19;;;;;;;8.77;1.90;;;;;;;10.68;59.89;99517.75;10378426;28;20081;-83
2022/09/17 01:41:36;;;;;;;9.73;1.90;;;;;;;10.83;59.53;99511.47;10376426;28;20046;-83
2022/09/17 01:46:44;;;;;;;6.47;1.85;;;;;;;10.88;59.40;99512.03;10392419;28;20053;-84
2022/09/17 01:51:49;;;;;;;8.93;1.83;;;;;;;10.85;59.25;99514.81;10375461;28;20060;-83
2022/09/17 01:57:00;;;;;;;9.07;2.00;;;;;;;10.82;59.90;99516.81;10374417;28;20498;-83
2022/09/17 02:02:28;;;;;;;8.20;1.85;;;;;;;10.74;60.40;99514.72;10392148;28;20812;-83
2022/09/17 02:07:32;;;;;;;10.00;2.30;;;;;;;10.82;60.72;99522.91;10399400;28;20049;-83
2022/09/17 02:12:39;;;;;;;10.55;2.58;;;;;;;10.79;60.59;99519.63;10379734;28;20084;-83
2022/09/17 02:18:25;;;;;;;8.95;2.17;;;;;;;10.73;60.80;99523.50;10380292;28;20054;-83
2022/09/17 02:23:35;;;;;;;6.97;2.00;;;;;;;10.71;61.20;99528.00;10382004;28;20045;-83
2022/09/17 02:29:03;;;;;;;9.47;1.80;;;;;;;10.59;61.65;99522.72;10378514;28;20053;-82
2022/09/17 02:34:06;;;;;;;6.70;1.67;;;;;;;10.72;61.38;99527.06;10381633;28;20045;-82
2022/09/17 02:39:08;;;;;;;9.32;2.10;;;;;;;10.60;61.61;99519.19;10388328;28;20045;-83
2022/09/17 02:44:32;;;;;;;12.15;2.00;;;;;;;10.61;62.31;99526.09;10397371;28;20045;-82
2022/09/17 02:49:48;;;;;;;11.48;2.40;;;;;;;10.62;62.40;99526.00;10393398;28;21778;-83
2022/09/17 02:55:15;;;;;;;15.55;2.80;;;;;;;10.69;62.16;99527.25;10387621;28;20073;-83
2022/09/17 03:00:20;;;;;;;8.20;2.10;;;;;;;10.69;61.90;99526.41;10383791;28;20139;-82
2022/09/17 03:05:22;;;;;;;12.23;2.28;;;;;;;10.60;62.30;99530.50;10384597;28;20060;-82
2022/09/17 03:10:29;;;;;;;10.40;2.20;;;;;;;10.56;62.33;99526.41;10375526;28;20111;-82
2022/09/17 03:15:32;;;;;;;10.30;2.58;;;;;;;10.64;62.42;99531.97;10392269;28;20046;-82
2022/09/17 03:20:33;;;;;;;10.75;2.20;;;;;;;10.69;62.82;99534.25;10392772;28;20145;-82
2022/09/17 03:25:35;;;;;;;10.52;2.45;;;;;;;10.65;63.17;99541.47;10375389;28;20056;-82
2022/09/17 03:30:37;;;;;;;11.20;2.58;;;;;;;10.60;63.84;99547.97;10374172;28;20062;-82
2022/09/17 03:35:42;;;;;;;9.98;2.10;;;;;;;10.60;64.08;99540.13;10375161;28;20423;-82
2022/09/17 03:40:44;;;;;;;10.13;2.55;;;;;;;10.59;64.37;99528.81;10373844;28;20064;-82
2022/09/17 03:45:46;;;;;;;6.50;2.10;;;;;;;10.34;65.21;99523.50;10372870;28;20052;-83
2022/09/17 03:50:48;;;;;;;7.85;2.63;;;;;;;10.26;65.31;99528.38;10376371;28;20062;-82
2022/09/17 03:55:50;;;;;;;8.27;2.22;;;;;;;10.16;65.91;99540.38;10383112;28;20053;-82
2022/09/17 04:00:52;;;;;;;6.57;2.40;;;;;;;10.14;65.93;99544.84;10380196;28;20068;-82
2022/09/17 04:05:54;;;;;;;8.80;2.17;;;;;;;10.11;66.20;99555.53;10380898;28;20132;-82
2022/09/17 04:10:56;;;;;;;5.95;2.00;;;;;;;10.28;66.02;99573.56;10396688;28;20050;-82
2022/09/17 04:15:57;;;;;;;7.30;2.22;;;;;;;10.32;65.84;99564.59;10380792;28;20050;-82
2022/09/17 04:20:59;;;;;;;7.47;2.35;;;;;;;10.42;65.53;99570.88;10379639;28;20518;-82
2022/09/17 04:26:01;;;;;;;10.77;3.25;;;;;;;10.47;65.41;99568.84;10380249;28;20513;-82
2022/09/17 04:31:03;;;;;;;7.95;3.33;;;;;;;10.61;64.78;99568.78;10380911;28;20057;-82
2022/09/17 04:36:04;;;;;;;14.80;4.55;;;;;;;10.75;64.45;99568.69;10379208;28;20057;-82
2022/09/17 04:41:07;;;;;;;15.73;5.15;;;;;;;10.87;64.35;99569.66;10381374;28;20065;-81
2022/09/17 04:46:08;;;;;;;13.80;5.68;;;;;;;10.88;63.81;99584.41;10381464;28;20053;-82
2022/09/17 04:51:10;;;;;;;17.98;6.57;;;;;;;10.93;63.87;99587.59;10382446;28;20061;-82
2022/09/17 04:56:12;;;;;;;15.93;6.97;;;;;;;10.96;63.89;99582.13;10386746;28;20487;-81
2022/09/17 05:01:17;;;;;;;14.15;7.07;;;;;;;10.92;64.08;99581.50;10393200;28;20120;-81
2022/09/17 05:06:19;;;;;;;18.33;7.60;;;;;;;10.92;64.14;99586.75;10390236;28;20049;-82
2022/09/17 05:17:45;;;;;;;16.23;7.07;;;;;;;10.83;64.34;99597.81;10387994;28;20045;-82
2022/09/17 05:22:50;;;;;;;16.73;5.97;;;;;;;10.79;64.34;99608.56;10383586;28;20145;-82
2022/09/17 05:27:53;;;;;;;17.52;6.32;;;;;;;10.82;64.14;99603.13;10377597;28;20057;-82
2022/09/17 05:33:02;;;;;;;14.38;6.03;;;;;;;10.70;64.17;99607.41;10379992;28;20065;-82
2022/09/17 05:38:04;;;;;;;17.75;6.60;;;;;;;10.78;63.94;99625.22;10395838;28;20053;-82
2022/09/17 05:43:06;;;;;;;13.40;6.13;;;;;;;10.97;63.53;99618.66;10377358;28;20944;-81
2022/09/17 05:48:13;;;;;;;18.50;6.20;;;;;;;11.19;63.39;99616.31;10377081;28;20057;-81
2022/09/17 05:53:14;;;;;;;11.77;4.90;;;;;;;11.25;62.98;99621.13;10375669;28;20056;-81
2022/09/17 05:58:18;;;;;;;18.80;5.57;;;;;;;11.44;63.07;99630.38;10394060;28;20080;-81
2022/09/17 06:03:21;;;;;;;14.63;5.40;;;;;;;11.60;62.52;99629.22;10378199;28;20058;-81
2022/09/17 06:08:25;;;;;;;20.02;5.93;;;;;;;11.69;61.97;99630.38;10374626;28;20054;-81
2022/09/17 06:13:26;;;;;;;14.02;5.35;;;;;;;11.70;61.47;99630.25;10375302;28;20054;-81
2022/09/17 06:18:30;;;;;;;14.90;4.57;;;;;;;11.55;61.68;99648.81;10387938;28;20407;-80
2022/09/17 06:23:36;;;;;;;13.30;4.80;;;;;;;11.60;61.81;99641.50;10356443;28;20057;-81
2022/09/17 06:28:37;;;;;;;12.18;4.20;;;;;;;11.68;61.35;99647.84;10372711;28;20057;-81
2022/09/17 06:33:42;;;;;;;18.30;5.60;;;;;;;11.68;61.32;99654.91;10367326;28;20131;-81
2022/09/17 06:38:44;;;;;;;12.25;3.47;;;;;;;11.72;61.20;99657.19;10371180;28;20080;-81
2022/09/17 06:43:46;;;;;;;11.75;3.53;;;;;;;11.75;61.06;99658.75;10371012;28;20328;-81
2022/09/17 06:48:48;;;;;;;12.85;3.20;;;;;;;11.78;60.28;99654.16;10371303;28;20054;-81
2022/09/17 06:53:49;;;;;;;12.52;3.33;;;;;;;12.00;60.42;99651.72;10368361;28;20086;-81
2022/09/17 06:58:52;;;;;;;12.65;3.50;;;;;;;12.34;59.54;99651.97;10374384;28;20087;-81
2022/09/17 07:03:55;;;;;;;13.98;3.35;;;;;;;12.41;59.06;99656.72;10374084;28;20061;-81
2022/09/17 07:08:58;;;;;;;15.75;3.80;;;;;;;12.48;58.99;99654.44;10380358;28;20060;-81
2022/09/17 07:14:00;;;;;;;11.95;3.78;;;;;;;12.70;58.42;99662.47;10408149;28;20128;-81
2022/09/17 07:19:03;;;;;;;10.40;3.17;;;;;;;12.63;58.62;99659.47;10379971;28;20542;-81
2022/09/17 07:24:05;;;;;;;12.65;3.65;;;;;;;12.47;58.88;99660.66;10374527;28;20428;-81
2022/09/17 07:29:07;;;;;;;9.23;3.30;;;;;;;12.51;58.61;99657.72;10372577;28;20855;-81
2022/09/17 07:34:10;;;;;;;13.98;3.72;;;;;;;12.40;58.13;99662.03;10374547;28;20586;-81
2022/09/17 07:39:12;;;;;;;10.30;3.50;;;;;;;12.85;57.47;99662.19;10354211;28;20049;-80
2022/09/17 07:44:14;;;;;;;9.98;3.17;;;;;;;13.40;56.53;99661.53;10369940;28;20042;-81
2022/09/17 07:49:16;;;;;;;10.93;3.58;;;;;;;13.67;55.46;99669.16;10369796;28;20046;-81
2022/09/17 07:54:21;;;;;;;16.13;3.67;;;;;;;14.39;53.42;99668.66;10369856;28;20046;-81
2022/09/17 07:59:23;;;;;;;12.98;3.40;;;;;;;14.52;53.20;99666.78;10371524;28;20054;-81
2022/09/17 08:04:25;;;;;;;8.50;3.67;;;;;;;14.94;52.85;99667.72;10372510;28;20081;-87
2022/09/17 08:09:27;;;;;;;9.35;3.13;;;;;;;15.34;51.54;99662.63;10374869;28;20072;-86
2022/09/17 08:14:29;;;;;;;15.05;3.33;;;;;;;15.92;50.16;99659.41;10376037;28;20045;-86
2022/09/17 08:19:31;;;;;;;7.80;2.90;;;;;;;15.53;49.52;99661.97;10371643;28;20060;-83
2022/09/17 08:24:33;;;;;;;11.57;3.00;;;;;;;15.37;50.56;99657.09;10372407;28;20049;-83
2022/09/17 08:29:35;;;;;;;9.80;2.80;;;;;;;16.32;48.59;99654.16;10371474;28;20053;-83
2022/09/17 08:34:37;;;;;;;8.20;2.45;;;;;;;15.97;48.59;99654.56;10387250;28;20506;-82
2022/09/17 08:39:40;;;;;;;8.77;2.75;;;;;;;15.71;48.74;99669.16;10382458;28;20144;-82
2022/09/17 08:44:46;;;;;;;9.82;2.50;;;;;;;14.62;52.17;99669.50;10375075;28;20077;-83
2022/09/17 08:50:02;;;;;;;10.23;2.38;;;;;;;13.76;53.38;99684.19;10383612;28;20144;-83
2022/09/17 08:55:04;;;;;;;6.82;2.00;;;;;;;13.41;55.01;99688.66;10386112;28;20488;-85
2022/09/17 09:00:15;;;;;;;9.05;1.98;;;;;;;13.42;55.28;99692.94;10399939;28;20061;-86
2022/09/17 09:05:44;;;;;;;6.68;1.92;;;;;;;13.56;54.42;99683.09;10399239;28;20053;-87
2022/09/17 09:10:55;;;;;;;10.00;2.28;;;;;;;13.53;54.71;99695.66;10390088;28;20049;-87
2022/09/17 09:16:01;;;;;;;10.07;2.15;;;;;;;13.56;55.00;99687.50;10395241;28;20050;-87
2022/09/17 09:21:15;;;;;;;8.52;2.03;;;;;;;13.48;55.59;99687.25;10396026;28;20937;-87
2022/09/17 09:26:33;;;;;;;12.93;2.50;;;;;;;13.45;55.70;99687.50;10397673;28;20046;-87
2022/09/17 09:32:06;;;;;;;12.00;2.60;;;;;;;13.24;56.39;99686.44;10408461;28;20045;-87
2022/09/17 09:37:26;;;;;;;8.45;2.42;;;;;;;13.11;55.97;99688.31;10395161;28;20491;-87
2022/09/17 09:42:48;;;;;;;10.30;2.25;;;;;;;12.98;56.95;99692.78;10395342;28;20068;-87
2022/09/17 09:48:00;;;;;;;8.45;2.00;;;;;;;13.30;56.35;99696.50;10392102;28;20118;-87
2022/09/17 09:53:20;;;;;;;7.65;2.10;;;;;;;13.85;54.87;99685.28;10383392;28;20056;-86
2022/09/17 09:58:39;;;;;;;16.30;2.17;;;;;;;14.39;53.35;99678.38;10376132;28;20054;-86
2022/09/17 10:03:44;;;;;;;7.38;2.08;;;;;;;15.18;52.52;99685.94;10377553;28;20061;-87
2022/09/17 10:08:49;;;;;;;11.05;2.10;;;;;;;15.87;51.02;99669.53;10375236;28;20100;-87
2022/09/17 10:13:53;;;;;;;12.18;2.47;;;;;;;15.81;50.27;99667.41;10391882;28;20105;-87
2022/09/17 10:19:06;;;;;;;7.70;2.17;;;;;;;16.00;49.88;99664.00;10358979;28;20049;-87
2022/09/17 10:24:33;;;;;;;12.57;2.28;;;;;;;15.79;49.00;99660.59;10377039;28;20081;-87
2022/09/17 10:29:46;;;;;;;12.10;2.35;;;;;;;15.95;49.33;99659.16;10359239;28;20057;-87
2022/09/17 10:35:24;;;;;;;7.72;2.10;;;;;;;16.20;47.12;99663.13;10408325;28;20416;-88
2022/09/17 10:40:29;;;;;;;11.38;2.20;;;;;;;15.41;49.71;99680.44;10408226;28;20073;-87
2022/09/17 10:45:31;;;;;;;11.05;2.20;;;;;;;14.28;54.01;99691.53;10374399;28;20495;-86
2022/09/17 10:50:34;;;;;;;9.35;1.90;;;;;;;13.66;55.30;99685.84;10376713;28;20054;-86
2022/09/17 10:55:55;;;;;;;7.03;1.80;;;;;;;13.81;56.41;99682.06;10377935;28;20057;-86
2022/09/17 11:01:05;;;;;;;10.48;2.20;;;;;;;14.19;56.57;99666.78;10374277;28;20461;-87
2022/09/17 11:06:24;;;;;;;9.10;1.90;;;;;;;14.83;54.48;99664.28;10374265;28;20053;-86
2022/09/17 11:11:29;;;;;;;9.85;1.95;;;;;;;15.25;52.54;99650.22;10379417;28;20057;-87
2022/09/17 11:16:47;;;;;;;8.23;1.70;;;;;;;15.28;52.01;99649.97;10378521;28;20052;-87
2022/09/17 11:22:00;;;;;;;9.55;1.90;;;;;;;15.39;53.80;99647.25;10378515;28;20502;-87
2022/09/17 11:27:20;;;;;;;11.05;2.13;;;;;;;15.17;54.15;99647.38;10363469;28;20051;-87
2022/09/17 11:32:52;;;;;;;10.07;1.92;;;;;;;14.62;55.23;99666.84;10387592;28;20499;-85
2022/09/17 11:38:06;;;;;;;7.00;1.75;;;;;;;14.28;53.74;99662.59;10383576;28;20085;-86
2022/09/17 11:43:20;;;;;;;9.10;1.70;;;;;;;14.22;54.77;99656.03;10381685;28;20053;-86
2022/09/17 11:48:31;;;;;;;7.22;1.73;;;;;;;14.35;53.82;99654.06;10379707;28;20049;-87
2022/09/17 11:53:45;;;;;;;5.57;1.45;;;;;;;14.42;54.04;99643.91;10378600;28;20414;-86
2022/09/17 11:58:48;;;;;;;8.38;1.75;;;;;;;14.75;52.81;99640.38;10376003;28;20050;-86
2022/09/17 12:04:10;;;;;;;9.77;2.42;;;;;;;14.83;50.29;99627.44;10387742;28;20054;-86
2022/09/17 12:09:18;;;;;;;7.35;1.77;;;;;;;15.41;49.77;99632.16;10374566;28;20081;-85
2022/09/17 12:14:42;;;;;;;6.97;1.65;;;;;;;15.47;47.72;99617.66;10381086;28;20061;-86
2022/09/17 12:19:54;;;;;;;5.47;1.35;;;;;;;15.18;47.52;99628.84;10368224;28;20053;-86
2022/09/17 12:24:56;;;;;;;6.05;1.40;;;;;;;14.80;48.91;99607.44;10383604;28;20046;-87
2022/09/17 12:30:12;;;;;;;5.78;1.50;;;;;;;14.44;49.15;99605.16;10381428;28;20057;-87
2022/09/17 12:35:34;;;;;;;7.00;1.63;;;;;;;14.18;49.61;99619.56;10381475;28;20050;-86
2022/09/17 12:41:02;;;;;;;5.38;1.52;;;;;;;15.00;48.47;99624.25;10382529;28;20077;-86
2022/09/17 12:46:12;;;;;;;5.85;1.40;;;;;;;15.75;47.09;99593.25;10380030;28;20491;-87
2022/09/17 12:51:23;;;;;;;6.55;1.48;;;;;;;15.88;44.14;99578.88;10383386;28;20412;-86
2022/09/17 12:56:46;;;;;;;4.63;1.38;;;;;;;15.89;45.48;99577.91;10377187;28;20156;-86
2022/09/17 13:02:15;;;;;;;6.72;1.58;;;;;;;16.01;43.86;99590.03;10379171;28;20083;-87
2022/09/17 13:07:55;;;;;;;4.85;1.20;;;;;;;15.37;44.05;99592.06;10378877;28;20042;-86
2022/09/17 13:13:23;;;;;;;7.32;1.50;;;;;;;15.48;43.67;99582.41;10380599;28;20145;-85
2022/09/17 13:18:34;;;;;;;4.18;1.10;;;;;;;15.91;43.44;99572.50;10379491;28;20068;-85
2022/09/17 13:23:43;;;;;;;6.25;1.40;;;;;;;16.50;42.88;99572.50;10372968;28;20525;-84
2022/09/17 13:28:48;;;;;;;5.05;1.27;;;;;;;16.46;42.50;99573.75;10372948;28;20046;-84
2022/09/17 13:34:02;;;;;;;9.77;1.42;;;;;;;15.58;45.46;99604.41;10377819;28;20431;-86
2022/09/17 13:39:07;;;;;;;6.30;1.85;;;;;;;15.27;48.26;99606.97;10391347;28;20057;-85
2022/09/17 13:44:11;;;;;;;6.78;1.50;;;;;;;14.88;49.41;99620.00;10378791;28;20057;-84
2022/09/17 13:49:15;;;;;;;4.97;1.55;;;;;;;14.61;50.03;99627.50;10378269;28;20060;-84
2022/09/17 13:54:19;;;;;;;5.78;1.73;;;;;;;14.39;51.47;99634.47;10376823;28;20058;-84
2022/09/17 13:59:26;;;;;;;5.80;1.27;;;;;;;14.29;52.22;99638.78;10378199;28;20061;-83
2022/09/17 14:04:45;;;;;;;4.38;1.40;;;;;;;14.21;51.04;99637.72;10375734;28;20050;-85
2022/09/17 14:10:00;;;;;;;4.85;1.40;;;;;;;14.16;51.68;99638.09;10380523;28;20049;-84
2022/09/17 14:15:03;;;;;;;6.70;1.48;;;;;;;14.79;51.72;99631.28;10375045;28;20046;-85
2022/09/17 14:20:07;;;;;;;5.78;1.40;;;;;;;14.60;52.09;99637.19;10375689;28;20041;-85
2022/09/17 14:25:18;;;;;;;4.70;1.23;;;;;;;14.40;52.32;99633.53;10377972;28;20500;-85
2022/09/17 14:30:28;;;;;;;6.03;1.80;;;;;;;15.03;50.65;99630.09;10375155;28;20061;-85
2022/09/17 14:35:40;;;;;;;6.00;1.17;;;;;;;15.13;50.39;99633.66;10375898;28;20411;-84
2022/09/17 14:40:45;;;;;;;4.00;1.25;;;;;;;15.81;49.91;99633.13;10394827;28;20734;-85
2022/09/17 14:45:51;;;;;;;4.38;1.25;;;;;;;16.18;48.01;99631.59;10374962;28;20064;-84
2022/09/17 14:51:16;;;;;;;3.42;1.02;;;;;;;15.66;47.62;99618.59;10373524;28;20053;-84
2022/09/17 14:56:21;;;;;;;3.15;1.05;;;;;;;15.30;48.25;99622.53;10369783;28;20068;-83
2022/09/17 15:01:25;;;;;;;5.20;1.27;;;;;;;14.76;50.07;99656.06;10388710;28;20060;-83
2022/09/17 15:06:26;;;;;;;5.55;1.40;;;;;;;13.13;56.39;99695.09;10376509;28;20088;-84
2022/09/17 15:11:30;;;;;;;5.88;1.30;;;;;;;12.31;58.28;99708.13;10370241;28;20426;-84
2022/09/17 15:16:33;;;;;;;4.55;1.10;;;;;;;12.11;58.19;99679.78;10379075;28;20462;-84
2022/09/17 15:21:42;;;;;;;3.63;1.10;;;;;;;12.33;58.70;99673.94;10373185;28;20057;-84
2022/09/17 15:26:50;;;;;;;4.60;1.20;;;;;;;12.79;58.79;99667.88;10375356;28;20809;-84
2022/09/17 15:31:52;;;;;;;1.45;0.82;;;;;;;13.40;58.04;99653.66;10373489;28;20179;-85
2022/09/17 15:37:17;;;;;;;3.75;1.08;;;;;;;13.53;57.90;99654.44;10364163;28;20049;-85
2022/09/17 15:42:22;;;;;;;1.83;1.00;;;;;;;13.67;57.26;99643.72;10375945;28;20068;-85
2022/09/17 15:47:52;;;;;;;2.97;0.80;;;;;;;13.39;57.49;99640.66;10387271;28;20060;-85
2022/09/17 15:53:09;;;;;;;2.90;0.93;;;;;;;13.00;57.03;99648.88;10392137;28;20520;-85
2022/09/17 15:58:31;;;;;;;2.63;0.80;;;;;;;13.04;57.20;99652.94;10377522;28;20053;-85
2022/09/17 16:03:45;;;;;;;4.10;1.08;;;;;;;13.08;56.78;99644.75;10372082;28;20058;-85
2022/09/17 16:08:48;;;;;;;3.00;1.00;;;;;;;13.18;57.35;99652.75;10368772;28;20062;-84
2022/09/17 16:13:52;;;;;;;5.43;1.38;;;;;;;13.23;57.81;99655.91;10373812;28;20408;-85
2022/09/17 16:18:53;;;;;;;4.70;0.90;;;;;;;12.57;59.23;99729.88;10375106;28;20046;-86
2022/09/17 16:23:57;;;;;;;3.45;1.08;;;;;;;11.92;58.38;99737.06;10375234;28;20507;-85
2022/09/17 16:29:03;;;;;;;6.45;1.05;;;;;;;11.65;59.57;99724.06;10383390;28;20049;-87
2022/09/17 16:34:05;;;;;;;2.90;0.93;;;;;;;11.50;59.36;99704.13;10378286;28;20136;-85
2022/09/17 16:39:07;;;;;;;4.47;0.80;;;;;;;11.30;59.68;99687.13;10368754;28;20056;-85
2022/09/17 16:44:09;;;;;;;2.83;0.80;;;;;;;11.25;60.21;99689.19;10387595;28;20056;-86
2022/09/17 16:49:13;;;;;;;5.15;1.13;;;;;;;11.40;59.88;99691.75;10405710;28;20077;-84
2022/09/17 16:54:14;;;;;;;2.65;1.15;;;;;;;11.25;61.28;99694.44;10374262;28;20053;-85
2022/09/17 16:59:16;;;;;;;4.03;1.30;;;;;;;11.12;61.53;99698.81;10376731;28;20042;-84
2022/09/17 17:04:20;;;;;;;3.65;1.13;;;;;;;10.97;62.23;99704.19;10377896;28;20057;-85
2022/09/17 17:09:21;;;;;;;3.47;0.88;;;;;;;11.02;62.50;99702.09;10379562;28;20056;-85
2022/09/17 17:14:23;;;;;;;2.08;1.00;;;;;;;11.14;62.63;99699.56;10379424;28;20061;-85
2022/09/17 17:19:25;;;;;;;4.97;1.40;;;;;;;10.93;63.02;99708.75;10377557;28;20106;-85
2022/09/17 17:24:27;;;;;;;6.55;1.55;;;;;;;10.95;63.13;99704.25;10382162;28;20083;-85
2022/09/17 17:29:29;;;;;;;8.40;1.88;;;;;;;10.77;63.36;99712.44;10378376;28;20053;-84
2022/09/17 17:34:31;;;;;;;3.08;1.30;;;;;;;10.78;63.34;99708.91;10377795;28;21076;-84
2022/09/17 17:39:33;;;;;;;3.40;1.20;;;;;;;10.73;63.47;99710.97;10369569;28;20057;-84
2022/09/17 17:44:34;;;;;;;3.85;1.20;;;;;;;10.59;63.87;99716.25;10373820;28;20064;-87
2022/09/17 17:49:36;;;;;;;4.45;1.13;;;;;;;10.51;63.78;99706.28;10377516;28;20053;-88
2022/09/17 17:54:37;;;;;;;5.97;1.38;;;;;;;10.43;63.90;99709.38;10374453;28;20072;-88
2022/09/17 17:59:39;;;;;;;7.18;1.50;;;;;;;10.39;63.80;99710.50;10374712;28;20053;-87
2022/09/17 18:04:41;;;;;;;5.05;1.30;;;;;;;10.21;64.18;99708.19;10372036;28;20072;-86
2022/09/17 18:09:43;;;;;;;5.72;1.48;;;;;;;10.15;63.99;99719.00;10377410;28;20076;-85
2022/09/17 18:14:45;;;;;;;4.72;1.58;;;;;;;10.06;64.65;99719.56;10377670;28;20052;-86
2022/09/17 18:19:46;;;;;;;5.65;1.38;;;;;;;10.07;64.16;99740.41;10378319;28;20048;-84
2022/09/17 18:24:48;;;;;;;5.80;1.42;;;;;;;10.15;64.09;99747.75;10379784;28;20053;-83
2022/09/17 18:29:50;;;;;;;4.05;1.30;;;;;;;10.02;64.05;99755.50;10380420;28;20421;-84
2022/09/17 18:34:52;;;;;;;9.75;1.88;;;;;;;10.06;64.29;99761.38;10378555;28;20103;-84
2022/09/17 18:39:54;;;;;;;6.15;1.40;;;;;;;9.94;64.56;99768.19;10375673;28;20507;-84
2022/09/17 18:45:00;;;;;;;6.63;1.95;;;;;;;9.84;64.66;99769.66;10375120;28;20049;-84
2022/09/17 18:50:02;;;;;;;7.53;1.70;;;;;;;9.78;65.07;99782.22;10373535;28;20096;-85
2022/09/17 18:55:05;;;;;;;5.30;1.80;;;;;;;9.71;64.91;99791.38;10371392;28;20091;-85
2022/09/17 19:00:10;;;;;;;7.40;2.20;;;;;;;9.73;65.25;99789.50;10376433;28;20129;-85
2022/09/17 19:05:12;;;;;;;7.25;1.63;;;;;;;9.70;65.14;99800.13;10372361;28;20629;-85
2022/09/17 19:10:19;;;;;;;7.75;2.20;;;;;;;9.63;65.08;99797.84;10391800;28;20069;-84
2022/09/17 19:15:23;;;;;;;10.02;3.38;;;;;;;9.59;65.23;99805.94;10376134;28;20060;-85
2022/09/17 19:20:28;;;;;;;6.30;2.30;;;;;;;9.68;65.35;99812.44;10373549;28;20084;-85
2022/09/17 19:25:30;;;;;;;6.68;1.60;;;;;;;9.84;65.07;99808.00;10391376;28;20206;-85
2022/09/17 19:30:32;;;;;;;10.90;3.38;;;;;;;10.05;64.57;99806.72;10373761;28;20471;-85
2022/09/17 19:35:34;;;;;;;5.88;2.10;;;;;;;10.08;64.58;99803.94;10373170;28;20050;-85
2022/09/17 19:40:35;;;;;;;5.90;1.70;;;;;;;10.09;64.88;99805.63;10370230;28;20097;-85
2022/09/17 19:45:37;;;;;;;8.00;2.03;;;;;;;10.05;64.62;99807.59;10374591;28;20765;-85
2022/09/17 19:50:49;;;;;;;11.40;2.05;;;;;;;9.96;64.84;99810.72;10380294;28;20052;-85
2022/09/17 19:55:50;;;;;;;10.82;1.88;;;;;;;10.08;64.64;99806.53;10379781;28;20049;-85
2022/09/17 20:00:56;;;;;;;9.00;1.90;;;;;;;9.99;65.01;99814.94;10382514;28;20427;-86
2022/09/17 20:05:59;;;;;;;7.70;3.53;;;;;;;9.93;64.98;99818.72;10382021;28;20132;-85
2022/09/17 20:11:06;;;;;;;10.75;5.10;;;;;;;9.93;65.48;99808.28;10375935;28;20061;-84
2022/09/17 20:16:11;;;;;;;6.53;1.95;;;;;;;9.86;65.46;99813.97;10393839;28;20056;-84
2022/09/17 20:21:15;;;;;;;6.00;2.10;;;;;;;9.82;65.83;99815.91;10385822;28;20131;-85
2022/09/17 20:26:17;;;;;;;5.18;1.80;;;;;;;9.95;65.70;99816.88;10394659;28;20047;-86
2022/09/17 20:31:24;;;;;;;7.70;2.00;;;;;;;9.90;66.11;99805.88;10384282;28;20141;-85
2022/09/17 20:36:35;;;;;;;9.25;2.20;;;;;;;10.07;65.70;99804.88;10389909;28;20056;-85
2022/09/17 20:41:38;;;;;;;9.07;2.22;;;;;;;10.24;65.40;99795.06;10385475;28;20053;-86
2022/09/17 20:46:40;;;;;;;7.40;2.20;;;;;;;10.47;64.91;99799.75;10381628;28;20053;-85
2022/09/17 20:51:41;;;;;;;8.38;2.38;;;;;;;10.56;64.95;99798.34;10381391;28;20131;-85
2022/09/17 20:56:43;;;;;;;7.72;1.80;;;;;;;10.66;64.99;99793.38;10376654;28;20571;-85
2022/09/17 21:01:48;;;;;;;9.48;2.30;;;;;;;10.57;65.04;99799.16;10379162;28;20061;-84
2022/09/17 21:06:51;;;;;;;11.30;2.33;;;;;;;10.59;65.04;99798.16;10379479;28;20738;-85
2022/09/17 21:11:53;;;;;;;10.18;2.05;;;;;;;10.56;65.04;99793.13;10376994;28;20056;-85
2022/09/17 21:16:55;;;;;;;9.20;2.20;;;;;;;10.56;65.14;99793.13;10379831;28;20042;-85
2022/09/17 21:21:57;;;;;;;7.88;1.80;;;;;;;10.54;64.96;99795.00;10377333;28;20053;-85
2022/09/17 21:26:59;;;;;;;12.15;2.40;;;;;;;10.50;64.94;99803.97;10376342;28;20057;-84
2022/09/17 21:32:00;;;;;;;6.70;2.10;;;;;;;10.46;64.89;99807.69;10377813;28;21050;-85
2022/09/17 21:37:03;;;;;;;11.55;2.22;;;;;;;10.43;64.90;99813.94;10375549;28;20061;-85
2022/09/17 21:42:05;;;;;;;10.10;2.03;;;;;;;10.39;65.02;99811.59;10377444;28;20140;-85
2022/09/17 21:47:07;;;;;;;10.73;1.98;;;;;;;10.37;65.14;99816.09;10377149;28;20048;-85
2022/09/17 21:52:12;;;;;;;10.55;2.03;;;;;;;10.39;65.12;99817.69;10375696;28;20084;-86
2022/09/17 21:57:14;;;;;;;15.15;2.38;;;;;;;10.42;65.12;99825.31;10377155;28;20423;-85
2022/09/17 22:02:16;;;;;;;9.57;2.10;;;;;;;10.44;64.92;99831.31;10376187;28;20081;-85
2022/09/17 22:07:18;;;;;;;11.27;2.10;;;;;;;10.51;64.71;99826.53;10410069;28;20519;-85
2022/09/17 22:12:23;;;;;;;13.38;2.45;;;;;;;10.54;65.06;99831.59;10376622;28;20703;-84
2022/09/17 22:17:24;;;;;;;10.30;2.30;;;;;;;10.57;64.61;99830.56;10375591;28;20045;-85
2022/09/17 22:22:26;;;;;;;12.52;2.53;;;;;;;10.50;64.75;99815.25;10392230;28;20068;-85
2022/09/17 22:27:28;;;;;;;11.25;2.25;;;;;;;10.58;64.59;99819.19;10390273;28;20050;-85
2022/09/17 22:32:29;;;;;;;16.73;2.38;;;;;;;10.65;64.12;99823.94;10375353;28;20403;-85
2022/09/17 22:37:31;;;;;;;7.28;2.03;;;;;;;10.64;64.12;99824.03;10375983;28;20060;-85
2022/09/17 22:42:33;;;;;;;10.57;2.05;;;;;;;10.66;64.02;99815.16;10379196;28;20064;-85
2022/09/17 22:47:34;;;;;;;9.95;2.15;;;;;;;10.69;64.11;99822.81;10375755;28;20049;-86
2022/09/17 22:52:36;;;;;;;9.65;1.98;;;;;;;10.56;64.17;99826.28;10410926;28;20057;-85
2022/09/17 22:57:38;;;;;;;11.88;2.20;;;;;;;10.58;64.36;99835.72;10373619;28;20054;-85
2022/09/17 23:02:39;;;;;;;7.95;2.38;;;;;;;10.63;64.14;99822.31;10375817;28;20088;-85
2022/09/17 23:07:41;;;;;;;18.48;2.75;;;;;;;10.74;63.97;99818.13;10367871;28;20111;-84
2022/09/17 23:12:43;;;;;;;7.63;2.05;;;;;;;10.82;63.82;99815.88;10369914;28;20511;-84
2022/09/17 23:17:45;;;;;;;8.43;1.90;;;;;;;10.90;63.88;99815.41;10373320;28;20104;-84
2022/09/17 23:22:47;;;;;;;7.60;2.13;;;;;;;10.95;63.65;99806.31;10373514;28;20057;-84
2022/09/17 23:27:48;;;;;;;7.80;1.95;;;;;;;10.84;63.76;99808.78;10374574;28;20792;-84
2022/09/17 23:32:55;;;;;;;8.45;1.70;;;;;;;10.72;63.82;99808.69;10373467;28;20172;-84
2022/09/17 23:37:57;;;;;;;7.45;1.70;;;;;;;10.71;64.03;99810.47;10390275;28;20052;-84
2022/09/17 23:42:58;;;;;;;6.60;1.88;;;;;;;10.80;63.54;99815.13;10374045;28;20053;-84
2022/09/17 23:48:00;;;;;;;7.97;2.22;;;;;;;10.82;63.46;99809.81;10371200;28;20045;-84
2022/09/17 23:53:02;;;;;;;6.82;1.98;;;;;;;10.77;63.54;99810.09;10372605;28;20057;-84